aviador You're here:

MMZC Decoded Metar

ZACATECAS in MEXICO
Report Time2018-01-17 00:43:00
UTC Time2018-01-17 01:18:56
Flight Rules vfr VFR
Wind110° at 12 kt
W.Decomp.*RWY 02: 1.7 kt HW 11.9 kt RCW
W.Rank110° ranks 8
Current wind is above 110° avg. (9.7)
Visibility9999 m
Phenomena:N/A
Clouds:Few 100 Hf
Expected CloudBase > 6,800 ft AGL from Temp-Dew spread
CeilingNone
Temp14°C (ISA +13)
Dew Point-3°C (31% RH)
AAT7.3°C
QNH1025 hPa
Density Alt8,343 ft
Elevation7,142 ft
Report Wrong Elevation
Raw Report
MMZC 170043Z 11012KT 10SM FEW100 14/M03 A3026 RMK 8/030=

Extra information for MMZC:More info

Metar Taf Metar & Taf Last 4 Metars F.Rules Stats Wind Profile Meteogram Temp Stats Airport Information Weather charts Add Link Nearby VenuesMetar ALERT Operation Metar Decoded Social comments